sensor_id;sensor_type;location;lat;lon;timestamp;P1;durP1;ratioP1;P2;durP2;ratioP2
5460;SDS011;2753;49.196;8.286;2022-08-05T00:01:49;4.53;;;2.13;;
5460;SDS011;2753;49.196;8.286;2022-08-05T00:04:15;10.87;;;2.87;;
5460;SDS011;2753;49.196;8.286;2022-08-05T00:06:41;10.93;;;3.47;;
5460;SDS011;2753;49.196;8.286;2022-08-05T00:09:07;11.33;;;3.37;;
5460;SDS011;2753;49.196;8.286;2022-08-05T00:11:32;8.97;;;2.60;;
5460;SDS011;2753;49.196;8.286;2022-08-05T00:13:58;13.40;;;2.83;;
5460;SDS011;2753;49.196;8.286;2022-08-05T00:16:23;13.07;;;2.97;;
5460;SDS011;2753;49.196;8.286;2022-08-05T00:18:49;23.83;;;3.00;;
5460;SDS011;2753;49.196;8.286;2022-08-05T00:21:16;14.87;;;3.00;;
5460;SDS011;2753;49.196;8.286;2022-08-05T00:23:43;9.37;;;2.57;;
5460;SDS011;2753;49.196;8.286;2022-08-05T00:26:10;10.93;;;2.80;;
5460;SDS011;2753;49.196;8.286;2022-08-05T00:28:36;14.80;;;2.90;;
5460;SDS011;2753;49.196;8.286;2022-08-05T00:31:02;8.70;;;2.83;;
5460;SDS011;2753;49.196;8.286;2022-08-05T00:33:29;14.87;;;3.07;;
5460;SDS011;2753;49.196;8.286;2022-08-05T00:35:55;11.37;;;2.87;;
5460;SDS011;2753;49.196;8.286;2022-08-05T00:38:21;20.70;;;3.30;;
5460;SDS011;2753;49.196;8.286;2022-08-05T00:40:47;23.33;;;3.60;;
5460;SDS011;2753;49.196;8.286;2022-08-05T00:43:14;20.23;;;2.90;;
5460;SDS011;2753;49.196;8.286;2022-08-05T00:45:40;16.13;;;2.93;;
5460;SDS011;2753;49.196;8.286;2022-08-05T00:48:08;10.23;;;3.00;;
5460;SDS011;2753;49.196;8.286;2022-08-05T00:50:38;11.43;;;2.60;;
5460;SDS011;2753;49.196;8.286;2022-08-05T00:53:06;7.97;;;2.87;;
5460;SDS011;2753;49.196;8.286;2022-08-05T00:55:32;15.17;;;3.10;;
5460;SDS011;2753;49.196;8.286;2022-08-05T00:57:58;12.20;;;3.17;;
5460;SDS011;2753;49.196;8.286;2022-08-05T01:00:24;24.20;;;4.40;;
5460;SDS011;2753;49.196;8.286;2022-08-05T01:02:51;4.17;;;2.63;;
5460;SDS011;2753;49.196;8.286;2022-08-05T01:05:16;15.83;;;3.10;;
5460;SDS011;2753;49.196;8.286;2022-08-05T01:07:42;7.37;;;3.03;;
5460;SDS011;2753;49.196;8.286;2022-08-05T01:10:08;21.27;;;3.10;;
5460;SDS011;2753;49.196;8.286;2022-08-05T01:12:36;7.17;;;3.20;;
5460;SDS011;2753;49.196;8.286;2022-08-05T01:15:06;21.00;;;2.87;;
5460;SDS011;2753;49.196;8.286;2022-08-05T01:23:12;6.37;;;3.27;;
5460;SDS011;2753;49.196;8.286;2022-08-05T01:28:44;11.43;;;3.17;;
5460;SDS011;2753;49.196;8.286;2022-08-05T01:31:20;15.70;;;4.20;;
5460;SDS011;2753;49.196;8.286;2022-08-05T01:34:07;7.87;;;3.40;;
5460;SDS011;2753;49.196;8.286;2022-08-05T01:37:04;13.97;;;3.47;;
5460;SDS011;2753;49.196;8.286;2022-08-05T01:39:38;4.60;;;3.30;;
5460;SDS011;2753;49.196;8.286;2022-08-05T01:42:06;12.63;;;3.47;;
5460;SDS011;2753;49.196;8.286;2022-08-05T01:44:35;20.83;;;3.67;;
5460;SDS011;2753;49.196;8.286;2022-08-05T01:47:01;14.23;;;3.07;;
5460;SDS011;2753;49.196;8.286;2022-08-05T01:49:28;8.43;;;3.57;;
5460;SDS011;2753;49.196;8.286;2022-08-05T01:51:57;10.87;;;3.87;;
5460;SDS011;2753;49.196;8.286;2022-08-05T01:54:30;5.33;;;3.40;;
5460;SDS011;2753;49.196;8.286;2022-08-05T01:57:01;11.93;;;3.83;;
5460;SDS011;2753;49.196;8.286;2022-08-05T01:59:29;12.20;;;3.47;;
5460;SDS011;2753;49.196;8.286;2022-08-05T02:01:57;5.13;;;3.53;;
5460;SDS011;2753;49.196;8.286;2022-08-05T02:04:26;3.00;;;2.80;;
5460;SDS011;2753;49.196;8.286;2022-08-05T02:06:54;14.93;;;3.40;;
5460;SDS011;2753;49.196;8.286;2022-08-05T02:09:20;15.10;;;3.87;;
5460;SDS011;2753;49.196;8.286;2022-08-05T02:14:47;7.80;;;3.23;;
5460;SDS011;2753;49.196;8.286;2022-08-05T02:17:43;10.70;;;3.53;;
5460;SDS011;2753;49.196;8.286;2022-08-05T02:20:04;11.83;;;3.33;;
5460;SDS011;2753;49.196;8.286;2022-08-05T02:22:38;14.57;;;4.10;;
5460;SDS011;2753;49.196;8.286;2022-08-05T02:25:07;6.53;;;2.80;;
5460;SDS011;2753;49.196;8.286;2022-08-05T02:27:41;5.20;;;3.17;;
5460;SDS011;2753;49.196;8.286;2022-08-05T02:30:13;8.40;;;3.37;;
5460;SDS011;2753;49.196;8.286;2022-08-05T02:32:39;6.90;;;3.53;;
5460;SDS011;2753;49.196;8.286;2022-08-05T02:35:09;7.83;;;3.90;;
5460;SDS011;2753;49.196;8.286;2022-08-05T02:37:37;4.20;;;3.10;;
5460;SDS011;2753;49.196;8.286;2022-08-05T02:40:04;6.90;;;3.40;;
5460;SDS011;2753;49.196;8.286;2022-08-05T02:42:32;4.03;;;3.63;;
5460;SDS011;2753;49.196;8.286;2022-08-05T02:44:59;7.87;;;3.40;;
5460;SDS011;2753;49.196;8.286;2022-08-05T02:47:26;6.70;;;3.50;;
5460;SDS011;2753;49.196;8.286;2022-08-05T02:49:55;5.47;;;3.20;;
5460;SDS011;2753;49.196;8.286;2022-08-05T02:52:21;6.83;;;3.23;;
5460;SDS011;2753;49.196;8.286;2022-08-05T02:54:47;5.23;;;3.37;;
5460;SDS011;2753;49.196;8.286;2022-08-05T02:57:16;4.77;;;3.20;;
5460;SDS011;2753;49.196;8.286;2022-08-05T02:59:46;10.67;;;3.10;;
5460;SDS011;2753;49.196;8.286;2022-08-05T03:02:14;4.63;;;3.00;;
5460;SDS011;2753;49.196;8.286;2022-08-05T03:04:44;10.67;;;3.20;;
5460;SDS011;2753;49.196;8.286;2022-08-05T03:07:11;4.50;;;3.33;;
5460;SDS011;2753;49.196;8.286;2022-08-05T03:09:37;8.43;;;3.57;;
5460;SDS011;2753;49.196;8.286;2022-08-05T03:12:06;6.53;;;3.30;;
5460;SDS011;2753;49.196;8.286;2022-08-05T03:14:32;5.53;;;3.83;;
5460;SDS011;2753;49.196;8.286;2022-08-05T03:16:58;6.97;;;4.00;;
5460;SDS011;2753;49.196;8.286;2022-08-05T03:19:24;5.23;;;3.90;;
5460;SDS011;2753;49.196;8.286;2022-08-05T03:21:50;7.43;;;3.30;;
5460;SDS011;2753;49.196;8.286;2022-08-05T03:24:17;11.93;;;4.00;;
5460;SDS011;2753;49.196;8.286;2022-08-05T03:26:43;9.60;;;4.23;;
5460;SDS011;2753;49.196;8.286;2022-08-05T03:29:09;5.07;;;3.90;;
5460;SDS011;2753;49.196;8.286;2022-08-05T03:31:35;5.30;;;3.50;;
5460;SDS011;2753;49.196;8.286;2022-08-05T03:34:01;10.03;;;4.03;;
5460;SDS011;2753;49.196;8.286;2022-08-05T03:36:28;19.37;;;3.97;;
5460;SDS011;2753;49.196;8.286;2022-08-05T03:38:55;6.93;;;3.63;;
5460;SDS011;2753;49.196;8.286;2022-08-05T03:41:21;9.07;;;3.90;;
5460;SDS011;2753;49.196;8.286;2022-08-05T03:43:47;11.17;;;3.50;;
5460;SDS011;2753;49.196;8.286;2022-08-05T03:46:13;7.40;;;3.60;;
5460;SDS011;2753;49.196;8.286;2022-08-05T03:48:38;11.80;;;4.20;;
5460;SDS011;2753;49.196;8.286;2022-08-05T03:51:20;5.87;;;3.80;;
5460;SDS011;2753;49.196;8.286;2022-08-05T03:54:02;8.13;;;4.23;;
5460;SDS011;2753;49.196;8.286;2022-08-05T03:56:35;11.80;;;3.60;;
5460;SDS011;2753;49.196;8.286;2022-08-05T03:59:06;10.40;;;4.20;;
5460;SDS011;2753;49.196;8.286;2022-08-05T04:01:42;5.30;;;3.40;;
5460;SDS011;2753;49.196;8.286;2022-08-05T04:04:11;9.50;;;3.83;;
5460;SDS011;2753;49.196;8.286;2022-08-05T04:06:38;10.83;;;4.17;;
5460;SDS011;2753;49.196;8.286;2022-08-05T04:09:05;11.10;;;4.23;;
5460;SDS011;2753;49.196;8.286;2022-08-05T04:11:32;9.03;;;3.87;;
5460;SDS011;2753;49.196;8.286;2022-08-05T04:14:00;11.67;;;4.27;;
5460;SDS011;2753;49.196;8.286;2022-08-05T04:16:26;9.33;;;3.90;;
5460;SDS011;2753;49.196;8.286;2022-08-05T04:18:53;12.23;;;3.73;;
5460;SDS011;2753;49.196;8.286;2022-08-05T04:21:19;8.37;;;3.20;;
5460;SDS011;2753;49.196;8.286;2022-08-05T04:23:45;9.03;;;3.40;;
5460;SDS011;2753;49.196;8.286;2022-08-05T04:26:11;5.73;;;3.10;;
5460;SDS011;2753;49.196;8.286;2022-08-05T04:28:38;5.63;;;3.30;;
5460;SDS011;2753;49.196;8.286;2022-08-05T04:31:04;10.90;;;3.20;;
5460;SDS011;2753;49.196;8.286;2022-08-05T04:33:30;12.73;;;2.73;;
5460;SDS011;2753;49.196;8.286;2022-08-05T04:35:55;5.63;;;2.40;;
5460;SDS011;2753;49.196;8.286;2022-08-05T04:38:21;7.90;;;2.57;;
5460;SDS011;2753;49.196;8.286;2022-08-05T04:40:46;4.10;;;2.90;;
5460;SDS011;2753;49.196;8.286;2022-08-05T04:43:13;4.00;;;2.43;;
5460;SDS011;2753;49.196;8.286;2022-08-05T04:45:39;5.27;;;2.30;;
5460;SDS011;2753;49.196;8.286;2022-08-05T04:48:06;19.70;;;3.40;;
5460;SDS011;2753;49.196;8.286;2022-08-05T04:50:40;11.63;;;2.50;;
5460;SDS011;2753;49.196;8.286;2022-08-05T04:53:08;2.37;;;2.27;;
5460;SDS011;2753;49.196;8.286;2022-08-05T04:55:35;8.97;;;2.07;;
5460;SDS011;2753;49.196;8.286;2022-08-05T04:58:03;5.33;;;2.20;;
5460;SDS011;2753;49.196;8.286;2022-08-05T05:00:30;4.20;;;2.10;;
5460;SDS011;2753;49.196;8.286;2022-08-05T05:02:56;7.97;;;2.33;;
5460;SDS011;2753;49.196;8.286;2022-08-05T05:05:22;7.83;;;2.60;;
5460;SDS011;2753;49.196;8.286;2022-08-05T05:07:47;5.43;;;2.33;;
5460;SDS011;2753;49.196;8.286;2022-08-05T05:10:13;11.47;;;2.70;;
5460;SDS011;2753;49.196;8.286;2022-08-05T05:12:39;7.60;;;3.23;;
5460;SDS011;2753;49.196;8.286;2022-08-05T05:15:05;3.83;;;2.90;;
5460;SDS011;2753;49.196;8.286;2022-08-05T05:17:41;14.33;;;2.90;;
5460;SDS011;2753;49.196;8.286;2022-08-05T05:20:11;3.20;;;2.27;;
5460;SDS011;2753;49.196;8.286;2022-08-05T05:22:37;3.63;;;2.33;;
5460;SDS011;2753;49.196;8.286;2022-08-05T05:25:03;3.33;;;2.90;;
5460;SDS011;2753;49.196;8.286;2022-08-05T05:27:30;10.60;;;2.50;;
5460;SDS011;2753;49.196;8.286;2022-08-05T05:29:57;4.37;;;3.00;;
5460;SDS011;2753;49.196;8.286;2022-08-05T05:32:23;8.97;;;2.30;;
5460;SDS011;2753;49.196;8.286;2022-08-05T05:34:48;9.33;;;2.77;;
5460;SDS011;2753;49.196;8.286;2022-08-05T05:37:14;2.83;;;2.27;;
5460;SDS011;2753;49.196;8.286;2022-08-05T05:39:40;4.40;;;2.93;;
5460;SDS011;2753;49.196;8.286;2022-08-05T05:42:06;3.83;;;2.83;;
5460;SDS011;2753;49.196;8.286;2022-08-05T05:44:32;8.13;;;2.53;;
5460;SDS011;2753;49.196;8.286;2022-08-05T05:46:58;3.47;;;2.60;;
5460;SDS011;2753;49.196;8.286;2022-08-05T05:49:24;3.70;;;2.20;;
5460;SDS011;2753;49.196;8.286;2022-08-05T05:51:50;5.50;;;2.73;;
5460;SDS011;2753;49.196;8.286;2022-08-05T05:54:16;4.73;;;3.17;;
5460;SDS011;2753;49.196;8.286;2022-08-05T05:56:42;11.27;;;2.37;;
5460;SDS011;2753;49.196;8.286;2022-08-05T05:59:08;9.20;;;2.70;;
5460;SDS011;2753;49.196;8.286;2022-08-05T06:01:34;6.77;;;2.33;;
5460;SDS011;2753;49.196;8.286;2022-08-05T06:04:01;11.30;;;2.70;;
5460;SDS011;2753;49.196;8.286;2022-08-05T06:06:27;6.03;;;2.37;;
5460;SDS011;2753;49.196;8.286;2022-08-05T06:08:53;2.80;;;2.60;;
5460;SDS011;2753;49.196;8.286;2022-08-05T06:11:19;6.10;;;3.13;;
5460;SDS011;2753;49.196;8.286;2022-08-05T06:13:45;2.40;;;2.30;;
5460;SDS011;2753;49.196;8.286;2022-08-05T06:16:10;6.60;;;2.20;;
5460;SDS011;2753;49.196;8.286;2022-08-05T06:18:36;3.77;;;2.30;;
5460;SDS011;2753;49.196;8.286;2022-08-05T06:21:02;2.00;;;1.90;;
5460;SDS011;2753;49.196;8.286;2022-08-05T06:23:28;4.07;;;2.47;;
5460;SDS011;2753;49.196;8.286;2022-08-05T06:25:54;6.93;;;2.67;;
5460;SDS011;2753;49.196;8.286;2022-08-05T06:28:20;4.83;;;2.60;;
5460;SDS011;2753;49.196;8.286;2022-08-05T06:30:45;4.30;;;2.67;;
5460;SDS011;2753;49.196;8.286;2022-08-05T06:33:11;4.67;;;2.50;;
5460;SDS011;2753;49.196;8.286;2022-08-05T06:35:37;3.97;;;2.53;;
5460;SDS011;2753;49.196;8.286;2022-08-05T06:38:02;4.53;;;2.53;;
5460;SDS011;2753;49.196;8.286;2022-08-05T06:40:28;5.17;;;2.00;;
5460;SDS011;2753;49.196;8.286;2022-08-05T06:42:54;4.00;;;2.50;;
5460;SDS011;2753;49.196;8.286;2022-08-05T06:45:20;4.30;;;2.40;;
5460;SDS011;2753;49.196;8.286;2022-08-05T06:47:46;6.70;;;2.30;;
5460;SDS011;2753;49.196;8.286;2022-08-05T06:50:12;5.67;;;2.60;;
5460;SDS011;2753;49.196;8.286;2022-08-05T06:52:37;4.03;;;2.53;;
5460;SDS011;2753;49.196;8.286;2022-08-05T06:55:03;3.43;;;2.73;;
5460;SDS011;2753;49.196;8.286;2022-08-05T06:57:29;2.67;;;2.43;;
5460;SDS011;2753;49.196;8.286;2022-08-05T06:59:55;3.53;;;2.50;;
5460;SDS011;2753;49.196;8.286;2022-08-05T07:02:21;4.40;;;2.00;;
5460;SDS011;2753;49.196;8.286;2022-08-05T07:04:46;3.27;;;2.33;;
5460;SDS011;2753;49.196;8.286;2022-08-05T07:07:12;17.10;;;2.10;;
5460;SDS011;2753;49.196;8.286;2022-08-05T07:09:37;5.20;;;2.50;;
5460;SDS011;2753;49.196;8.286;2022-08-05T07:12:03;6.43;;;2.43;;
5460;SDS011;2753;49.196;8.286;2022-08-05T07:14:30;2.43;;;2.33;;
5460;SDS011;2753;49.196;8.286;2022-08-05T07:17:14;2.07;;;1.97;;
5460;SDS011;2753;49.196;8.286;2022-08-05T07:19:40;4.47;;;3.27;;
5460;SDS011;2753;49.196;8.286;2022-08-05T07:22:05;5.30;;;2.77;;
5460;SDS011;2753;49.196;8.286;2022-08-05T07:24:31;2.30;;;2.10;;
5460;SDS011;2753;49.196;8.286;2022-08-05T07:26:57;2.33;;;2.20;;
5460;SDS011;2753;49.196;8.286;2022-08-05T07:29:22;4.43;;;2.00;;
5460;SDS011;2753;49.196;8.286;2022-08-05T07:31:48;3.53;;;2.70;;
5460;SDS011;2753;49.196;8.286;2022-08-05T07:34:13;2.20;;;2.10;;
5460;SDS011;2753;49.196;8.286;2022-08-05T07:36:39;1.83;;;1.73;;
5460;SDS011;2753;49.196;8.286;2022-08-05T07:39:06;4.50;;;2.67;;
5460;SDS011;2753;49.196;8.286;2022-08-05T07:41:32;4.00;;;2.03;;
5460;SDS011;2753;49.196;8.286;2022-08-05T07:43:59;2.33;;;2.10;;
5460;SDS011;2753;49.196;8.286;2022-08-05T07:46:27;1.60;;;1.50;;
5460;SDS011;2753;49.196;8.286;2022-08-05T07:48:54;1.87;;;1.77;;
5460;SDS011;2753;49.196;8.286;2022-08-05T07:51:20;5.93;;;3.00;;
5460;SDS011;2753;49.196;8.286;2022-08-05T07:53:46;2.60;;;1.90;;
5460;SDS011;2753;49.196;8.286;2022-08-05T07:56:12;3.00;;;2.30;;
5460;SDS011;2753;49.196;8.286;2022-08-05T07:58:37;3.40;;;2.00;;
5460;SDS011;2753;49.196;8.286;2022-08-05T08:01:03;3.40;;;2.23;;
5460;SDS011;2753;49.196;8.286;2022-08-05T08:03:30;4.10;;;2.13;;
5460;SDS011;2753;49.196;8.286;2022-08-05T08:05:55;2.57;;;2.37;;
5460;SDS011;2753;49.196;8.286;2022-08-05T08:08:21;2.47;;;2.37;;
5460;SDS011;2753;49.196;8.286;2022-08-05T08:10:47;2.40;;;2.20;;
5460;SDS011;2753;49.196;8.286;2022-08-05T08:13:12;4.37;;;2.00;;
5460;SDS011;2753;49.196;8.286;2022-08-05T08:15:38;5.40;;;2.43;;
5460;SDS011;2753;49.196;8.286;2022-08-05T08:18:04;2.83;;;2.13;;
5460;SDS011;2753;49.196;8.286;2022-08-05T08:20:29;3.63;;;2.30;;
5460;SDS011;2753;49.196;8.286;2022-08-05T08:22:56;3.03;;;2.33;;
5460;SDS011;2753;49.196;8.286;2022-08-05T08:25:23;2.77;;;2.00;;
5460;SDS011;2753;49.196;8.286;2022-08-05T08:27:50;10.00;;;2.50;;
5460;SDS011;2753;49.196;8.286;2022-08-05T08:30:15;2.73;;;2.03;;
5460;SDS011;2753;49.196;8.286;2022-08-05T08:32:41;7.67;;;2.13;;
5460;SDS011;2753;49.196;8.286;2022-08-05T08:35:07;2.90;;;2.07;;
5460;SDS011;2753;49.196;8.286;2022-08-05T08:37:33;2.50;;;2.37;;
5460;SDS011;2753;49.196;8.286;2022-08-05T08:39:59;3.30;;;2.70;;
5460;SDS011;2753;49.196;8.286;2022-08-05T08:42:25;5.43;;;1.97;;
5460;SDS011;2753;49.196;8.286;2022-08-05T08:44:52;4.93;;;2.10;;
5460;SDS011;2753;49.196;8.286;2022-08-05T08:47:23;3.10;;;2.40;;
5460;SDS011;2753;49.196;8.286;2022-08-05T08:49:51;2.70;;;1.87;;
5460;SDS011;2753;49.196;8.286;2022-08-05T08:52:25;2.30;;;2.20;;
5460;SDS011;2753;49.196;8.286;2022-08-05T08:54:54;2.20;;;2.00;;
5460;SDS011;2753;49.196;8.286;2022-08-05T08:57:20;5.17;;;2.80;;
5460;SDS011;2753;49.196;8.286;2022-08-05T08:59:47;3.07;;;2.30;;
5460;SDS011;2753;49.196;8.286;2022-08-05T09:02:14;3.43;;;2.17;;
5460;SDS011;2753;49.196;8.286;2022-08-05T09:04:42;2.27;;;1.63;;
5460;SDS011;2753;49.196;8.286;2022-08-05T09:07:09;5.63;;;2.10;;
5460;SDS011;2753;49.196;8.286;2022-08-05T09:09:35;2.33;;;2.13;;
5460;SDS011;2753;49.196;8.286;2022-08-05T09:12:02;2.50;;;2.30;;
5460;SDS011;2753;49.196;8.286;2022-08-05T09:14:36;2.50;;;2.00;;
5460;SDS011;2753;49.196;8.286;2022-08-05T09:17:03;6.23;;;2.40;;
5460;SDS011;2753;49.196;8.286;2022-08-05T09:19:31;4.10;;;1.90;;
5460;SDS011;2753;49.196;8.286;2022-08-05T09:21:57;10.60;;;2.63;;
5460;SDS011;2753;49.196;8.286;2022-08-05T09:24:23;13.77;;;2.93;;
5460;SDS011;2753;49.196;8.286;2022-08-05T09:26:49;5.30;;;2.27;;
5460;SDS011;2753;49.196;8.286;2022-08-05T09:29:16;6.20;;;2.13;;
5460;SDS011;2753;49.196;8.286;2022-08-05T09:31:42;6.43;;;2.30;;
5460;SDS011;2753;49.196;8.286;2022-08-05T09:34:10;2.20;;;2.10;;
5460;SDS011;2753;49.196;8.286;2022-08-05T09:39:04;5.83;;;1.67;;
5460;SDS011;2753;49.196;8.286;2022-08-05T09:41:32;2.10;;;1.80;;
5460;SDS011;2753;49.196;8.286;2022-08-05T09:43:58;1.80;;;1.70;;
5460;SDS011;2753;49.196;8.286;2022-08-05T09:46:25;2.30;;;2.20;;
5460;SDS011;2753;49.196;8.286;2022-08-05T09:48:58;3.57;;;2.50;;
5460;SDS011;2753;49.196;8.286;2022-08-05T09:51:35;7.13;;;1.80;;
5460;SDS011;2753;49.196;8.286;2022-08-05T09:54:03;4.53;;;1.63;;
5460;SDS011;2753;49.196;8.286;2022-08-05T09:56:32;1.60;;;1.50;;
5460;SDS011;2753;49.196;8.286;2022-08-05T09:59:08;2.23;;;2.13;;
5460;SDS011;2753;49.196;8.286;2022-08-05T10:01:36;2.17;;;2.03;;
5460;SDS011;2753;49.196;8.286;2022-08-05T10:04:09;1.83;;;1.40;;
5460;SDS011;2753;49.196;8.286;2022-08-05T10:06:39;3.43;;;1.90;;
5460;SDS011;2753;49.196;8.286;2022-08-05T10:11:39;2.27;;;2.07;;
5460;SDS011;2753;49.196;8.286;2022-08-05T10:16:55;2.07;;;1.97;;
5460;SDS011;2753;49.196;8.286;2022-08-05T10:19:22;5.33;;;2.10;;
5460;SDS011;2753;49.196;8.286;2022-08-05T10:21:49;2.03;;;1.77;;
5460;SDS011;2753;49.196;8.286;2022-08-05T10:24:16;3.27;;;2.57;;
5460;SDS011;2753;49.196;8.286;2022-08-05T10:26:45;1.70;;;1.70;;
5460;SDS011;2753;49.196;8.286;2022-08-05T10:29:12;2.13;;;1.83;;
5460;SDS011;2753;49.196;8.286;2022-08-05T10:31:38;1.60;;;1.50;;
5460;SDS011;2753;49.196;8.286;2022-08-05T10:34:05;2.00;;;1.80;;
5460;SDS011;2753;49.196;8.286;2022-08-05T10:36:35;2.40;;;2.30;;
5460;SDS011;2753;49.196;8.286;2022-08-05T10:39:20;4.63;;;1.93;;
5460;SDS011;2753;49.196;8.286;2022-08-05T10:41:54;2.57;;;2.37;;
5460;SDS011;2753;49.196;8.286;2022-08-05T10:44:26;1.90;;;1.80;;
5460;SDS011;2753;49.196;8.286;2022-08-05T10:46:56;2.33;;;2.27;;
5460;SDS011;2753;49.196;8.286;2022-08-05T10:49:23;3.17;;;2.00;;
5460;SDS011;2753;49.196;8.286;2022-08-05T10:51:51;2.80;;;2.60;;
5460;SDS011;2753;49.196;8.286;2022-08-05T10:54:21;2.93;;;1.87;;
5460;SDS011;2753;49.196;8.286;2022-08-05T10:56:52;6.00;;;2.20;;
5460;SDS011;2753;49.196;8.286;2022-08-05T10:59:25;2.20;;;2.07;;
5460;SDS011;2753;49.196;8.286;2022-08-05T11:02:04;2.40;;;2.10;;
5460;SDS011;2753;49.196;8.286;2022-08-05T11:04:35;2.57;;;2.33;;
5460;SDS011;2753;49.196;8.286;2022-08-05T11:07:08;2.17;;;2.07;;
5460;SDS011;2753;49.196;8.286;2022-08-05T11:09:43;2.40;;;1.90;;
5460;SDS011;2753;49.196;8.286;2022-08-05T11:17:43;4.80;;;2.40;;
5460;SDS011;2753;49.196;8.286;2022-08-05T11:23:23;2.47;;;2.33;;
5460;SDS011;2753;49.196;8.286;2022-08-05T11:26:03;2.30;;;2.10;;
5460;SDS011;2753;49.196;8.286;2022-08-05T11:43:51;3.80;;;2.50;;
5460;SDS011;2753;49.196;8.286;2022-08-05T11:46:24;2.43;;;2.23;;
5460;SDS011;2753;49.196;8.286;2022-08-05T11:48:51;2.50;;;1.97;;
5460;SDS011;2753;49.196;8.286;2022-08-05T11:51:17;2.67;;;2.47;;
5460;SDS011;2753;49.196;8.286;2022-08-05T11:53:43;2.20;;;2.10;;
5460;SDS011;2753;49.196;8.286;2022-08-05T11:56:10;2.17;;;2.07;;
5460;SDS011;2753;49.196;8.286;2022-08-05T11:58:37;6.27;;;2.57;;
5460;SDS011;2753;49.196;8.286;2022-08-05T12:06:27;4.27;;;2.63;;
5460;SDS011;2753;49.196;8.286;2022-08-05T12:08:55;6.07;;;2.70;;
5460;SDS011;2753;49.196;8.286;2022-08-05T12:11:29;2.90;;;2.70;;
5460;SDS011;2753;49.196;8.286;2022-08-05T12:16:26;3.33;;;2.50;;
5460;SDS011;2753;49.196;8.286;2022-08-05T12:18:57;3.20;;;2.90;;
5460;SDS011;2753;49.196;8.286;2022-08-05T12:21:24;2.30;;;2.20;;
5460;SDS011;2753;49.196;8.286;2022-08-05T12:24:02;4.10;;;2.20;;
5460;SDS011;2753;49.196;8.286;2022-08-05T12:26:33;3.73;;;2.13;;
5460;SDS011;2753;49.196;8.286;2022-08-05T12:29:02;5.27;;;2.63;;
5460;SDS011;2753;49.196;8.286;2022-08-05T12:31:32;9.00;;;2.47;;
5460;SDS011;2753;49.196;8.286;2022-08-05T12:34:02;2.73;;;2.53;;
5460;SDS011;2753;49.196;8.286;2022-08-05T12:36:30;3.03;;;2.83;;
5460;SDS011;2753;49.196;8.286;2022-08-05T12:38:57;2.90;;;2.43;;
5460;SDS011;2753;49.196;8.286;2022-08-05T12:41:28;2.47;;;2.27;;
5460;SDS011;2753;49.196;8.286;2022-08-05T12:44:09;6.60;;;2.77;;
5460;SDS011;2753;49.196;8.286;2022-08-05T12:46:39;2.20;;;2.10;;
5460;SDS011;2753;49.196;8.286;2022-08-05T12:49:10;3.03;;;2.83;;
5460;SDS011;2753;49.196;8.286;2022-08-05T12:56:46;8.50;;;2.80;;
5460;SDS011;2753;49.196;8.286;2022-08-05T12:59:23;4.80;;;2.57;;
5460;SDS011;2753;49.196;8.286;2022-08-05T13:04:52;3.03;;;2.83;;
5460;SDS011;2753;49.196;8.286;2022-08-05T13:07:23;2.83;;;2.63;;
5460;SDS011;2753;49.196;8.286;2022-08-05T13:09:53;3.17;;;2.87;;
5460;SDS011;2753;49.196;8.286;2022-08-05T13:12:23;5.47;;;2.90;;
5460;SDS011;2753;49.196;8.286;2022-08-05T13:14:55;3.20;;;2.90;;
5460;SDS011;2753;49.196;8.286;2022-08-05T13:17:27;5.33;;;3.90;;
5460;SDS011;2753;49.196;8.286;2022-08-05T13:22:26;2.97;;;2.77;;
5460;SDS011;2753;49.196;8.286;2022-08-05T13:24:52;2.70;;;2.60;;
5460;SDS011;2753;49.196;8.286;2022-08-05T13:27:40;5.00;;;2.93;;
5460;SDS011;2753;49.196;8.286;2022-08-05T13:30:08;7.63;;;3.77;;
5460;SDS011;2753;49.196;8.286;2022-08-05T13:32:36;6.77;;;3.40;;
5460;SDS011;2753;49.196;8.286;2022-08-05T13:35:03;6.63;;;3.20;;
5460;SDS011;2753;49.196;8.286;2022-08-05T13:37:30;5.50;;;3.40;;
5460;SDS011;2753;49.196;8.286;2022-08-05T13:39:55;4.33;;;3.63;;
5460;SDS011;2753;49.196;8.286;2022-08-05T13:42:21;7.70;;;3.57;;
5460;SDS011;2753;49.196;8.286;2022-08-05T13:44:51;8.33;;;3.90;;
5460;SDS011;2753;49.196;8.286;2022-08-05T13:47:21;4.77;;;3.40;;
5460;SDS011;2753;49.196;8.286;2022-08-05T13:49:48;3.70;;;3.50;;
5460;SDS011;2753;49.196;8.286;2022-08-05T13:52:15;2.90;;;2.73;;
5460;SDS011;2753;49.196;8.286;2022-08-05T13:54:44;3.80;;;3.50;;
5460;SDS011;2753;49.196;8.286;2022-08-05T13:57:11;3.87;;;3.67;;
5460;SDS011;2753;49.196;8.286;2022-08-05T13:59:38;3.57;;;3.27;;
5460;SDS011;2753;49.196;8.286;2022-08-05T14:02:04;5.00;;;3.60;;
5460;SDS011;2753;49.196;8.286;2022-08-05T14:04:33;4.97;;;3.10;;
5460;SDS011;2753;49.196;8.286;2022-08-05T14:07:19;3.93;;;3.43;;
5460;SDS011;2753;49.196;8.286;2022-08-05T14:09:56;3.63;;;3.30;;
5460;SDS011;2753;49.196;8.286;2022-08-05T14:12:22;6.93;;;3.10;;
5460;SDS011;2753;49.196;8.286;2022-08-05T14:14:48;4.20;;;3.83;;
5460;SDS011;2753;49.196;8.286;2022-08-05T14:17:14;4.50;;;3.30;;
5460;SDS011;2753;49.196;8.286;2022-08-05T14:19:43;6.80;;;3.30;;
5460;SDS011;2753;49.196;8.286;2022-08-05T14:22:09;7.67;;;3.30;;
5460;SDS011;2753;49.196;8.286;2022-08-05T14:24:35;2.87;;;2.67;;
5460;SDS011;2753;49.196;8.286;2022-08-05T14:27:02;8.60;;;3.03;;
5460;SDS011;2753;49.196;8.286;2022-08-05T14:29:28;5.60;;;2.63;;
5460;SDS011;2753;49.196;8.286;2022-08-05T14:31:54;3.00;;;2.80;;
5460;SDS011;2753;49.196;8.286;2022-08-05T14:34:19;4.03;;;3.03;;
5460;SDS011;2753;49.196;8.286;2022-08-05T14:36:45;2.60;;;2.40;;
5460;SDS011;2753;49.196;8.286;2022-08-05T14:39:11;2.80;;;2.60;;
5460;SDS011;2753;49.196;8.286;2022-08-05T14:41:37;2.57;;;2.40;;
5460;SDS011;2753;49.196;8.286;2022-08-05T14:44:02;3.53;;;2.90;;
5460;SDS011;2753;49.196;8.286;2022-08-05T14:46:29;4.00;;;2.73;;
5460;SDS011;2753;49.196;8.286;2022-08-05T14:48:56;11.97;;;3.60;;
5460;SDS011;2753;49.196;8.286;2022-08-05T14:51:23;9.40;;;2.87;;
5460;SDS011;2753;49.196;8.286;2022-08-05T14:53:48;8.67;;;2.67;;
5460;SDS011;2753;49.196;8.286;2022-08-05T14:56:14;2.53;;;2.33;;
5460;SDS011;2753;49.196;8.286;2022-08-05T14:58:40;4.20;;;2.70;;
5460;SDS011;2753;49.196;8.286;2022-08-05T15:01:06;5.10;;;2.40;;
5460;SDS011;2753;49.196;8.286;2022-08-05T15:03:32;2.00;;;1.90;;
5460;SDS011;2753;49.196;8.286;2022-08-05T15:05:58;2.53;;;2.33;;
5460;SDS011;2753;49.196;8.286;2022-08-05T15:08:24;4.60;;;2.30;;
5460;SDS011;2753;49.196;8.286;2022-08-05T15:10:50;18.43;;;3.93;;
5460;SDS011;2753;49.196;8.286;2022-08-05T15:13:16;9.80;;;3.00;;
5460;SDS011;2753;49.196;8.286;2022-08-05T15:15:42;9.20;;;2.50;;
5460;SDS011;2753;49.196;8.286;2022-08-05T15:18:08;3.30;;;2.30;;
5460;SDS011;2753;49.196;8.286;2022-08-05T15:20:33;3.53;;;3.00;;
5460;SDS011;2753;49.196;8.286;2022-08-05T15:23:06;2.23;;;2.10;;
5460;SDS011;2753;49.196;8.286;2022-08-05T15:25:36;4.13;;;2.40;;
5460;SDS011;2753;49.196;8.286;2022-08-05T15:28:04;2.77;;;2.27;;
5460;SDS011;2753;49.196;8.286;2022-08-05T15:30:29;13.20;;;2.37;;
5460;SDS011;2753;49.196;8.286;2022-08-05T15:32:58;3.57;;;2.10;;
5460;SDS011;2753;49.196;8.286;2022-08-05T15:35:24;2.60;;;2.40;;
5460;SDS011;2753;49.196;8.286;2022-08-05T15:37:51;4.13;;;2.40;;
5460;SDS011;2753;49.196;8.286;2022-08-05T15:40:16;4.23;;;1.87;;
5460;SDS011;2753;49.196;8.286;2022-08-05T15:42:42;4.03;;;2.53;;
5460;SDS011;2753;49.196;8.286;2022-08-05T15:45:08;3.03;;;2.73;;
5460;SDS011;2753;49.196;8.286;2022-08-05T15:47:39;9.10;;;3.67;;
5460;SDS011;2753;49.196;8.286;2022-08-05T15:50:06;11.20;;;4.03;;
5460;SDS011;2753;49.196;8.286;2022-08-05T15:52:32;15.13;;;5.30;;
5460;SDS011;2753;49.196;8.286;2022-08-05T15:54:59;9.10;;;4.83;;
5460;SDS011;2753;49.196;8.286;2022-08-05T15:57:25;14.87;;;5.67;;
5460;SDS011;2753;49.196;8.286;2022-08-05T15:59:50;14.53;;;5.53;;
5460;SDS011;2753;49.196;8.286;2022-08-05T16:02:16;8.60;;;7.20;;
5460;SDS011;2753;49.196;8.286;2022-08-05T16:04:42;12.93;;;6.63;;
5460;SDS011;2753;49.196;8.286;2022-08-05T16:07:08;19.20;;;7.87;;
5460;SDS011;2753;49.196;8.286;2022-08-05T16:09:34;9.20;;;7.63;;
5460;SDS011;2753;49.196;8.286;2022-08-05T16:12:00;11.27;;;8.07;;
5460;SDS011;2753;49.196;8.286;2022-08-05T16:14:25;18.23;;;8.80;;
5460;SDS011;2753;49.196;8.286;2022-08-05T16:16:51;10.03;;;8.27;;
5460;SDS011;2753;49.196;8.286;2022-08-05T16:19:17;18.13;;;7.10;;